createdAt,value
2023-04-02T00:00:03.252Z,500.00
2023-04-02T00:00:33.337Z,501.00
2023-04-02T00:01:03.420Z,501.00
2023-04-02T00:01:33.493Z,503.00
2023-04-02T00:02:03.614Z,501.00
2023-04-02T00:02:33.740Z,501.00
2023-04-02T00:03:03.882Z,502.00
2023-04-02T00:03:33.835Z,502.00
2023-04-02T00:04:03.784Z,500.00
2023-04-02T00:04:33.834Z,501.00
2023-04-02T00:05:03.931Z,501.00
2023-04-02T00:05:34.316Z,501.00
2023-04-02T00:06:04.001Z,500.00
2023-04-02T00:06:33.998Z,498.00
2023-04-02T00:07:04.041Z,496.00
2023-04-02T00:07:34.079Z,497.00
2023-04-02T00:08:04.124Z,500.00
2023-04-02T00:08:34.163Z,497.00
2023-04-02T00:09:04.215Z,497.00
2023-04-02T00:09:34.263Z,500.00
2023-04-02T00:10:04.303Z,500.00
2023-04-02T00:10:34.337Z,498.00
2023-04-02T00:11:04.400Z,499.00
2023-04-02T00:11:34.477Z,500.00
2023-04-02T00:12:04.502Z,500.00
2023-04-02T00:12:34.580Z,504.00
2023-04-02T00:13:04.676Z,499.00
2023-04-02T00:13:34.766Z,499.00
2023-04-02T00:14:04.888Z,502.00
2023-04-02T00:14:34.857Z,502.00
2023-04-02T00:15:04.939Z,500.00
2023-04-02T00:15:35.252Z,501.00
2023-04-02T00:16:05.158Z,501.00
2023-04-02T00:16:35.251Z,499.00
2023-04-02T00:17:05.260Z,500.00
2023-04-02T00:17:35.357Z,500.00
2023-04-02T00:18:05.446Z,500.00
2023-04-02T00:18:35.501Z,501.00
2023-04-02T00:19:05.606Z,500.00
2023-04-02T00:19:35.686Z,501.00
2023-04-02T00:20:05.773Z,499.00
2023-04-02T00:20:35.853Z,499.00
2023-04-02T00:21:05.942Z,505.00
2023-04-02T00:21:36.650Z,506.00
2023-04-02T00:22:06.092Z,506.00
2023-04-02T00:22:36.173Z,504.00
2023-04-02T00:23:06.283Z,505.00
2023-04-02T00:23:36.361Z,505.00
2023-04-02T00:24:06.450Z,498.00
2023-04-02T00:24:36.535Z,498.00
2023-04-02T00:25:06.631Z,501.00
2023-04-02T00:25:36.948Z,504.00
2023-04-02T00:26:06.731Z,501.00
2023-04-02T00:26:36.846Z,498.00
2023-04-02T00:27:06.813Z,496.00
2023-04-02T00:27:36.889Z,495.00
2023-04-02T00:28:06.972Z,497.00
2023-04-02T00:28:37.057Z,498.00
2023-04-02T00:29:07.167Z,498.00
2023-04-02T00:29:37.236Z,499.00
2023-04-02T00:30:07.312Z,502.00
2023-04-02T00:30:37.391Z,501.00
2023-04-02T00:31:07.480Z,502.00
2023-04-02T00:31:37.601Z,495.00
2023-04-02T00:32:07.695Z,498.00
2023-04-02T00:32:37.666Z,494.00
2023-04-02T00:33:07.911Z,494.00
2023-04-02T00:33:37.783Z,494.00
2023-04-02T00:34:07.874Z,492.00
2023-04-02T00:34:37.955Z,492.00
2023-04-02T00:35:08.044Z,494.00
2023-04-02T00:35:38.185Z,495.00
2023-04-02T00:36:08.187Z,495.00
2023-04-02T00:36:38.174Z,493.00
2023-04-02T00:37:08.253Z,496.00
2023-04-02T00:37:38.347Z,497.00
2023-04-02T00:38:08.439Z,496.00
2023-04-02T00:38:38.506Z,495.00
2023-04-02T00:39:08.606Z,495.00
2023-04-02T00:39:38.687Z,492.00
2023-04-02T00:40:08.779Z,492.00
2023-04-02T00:40:38.841Z,496.00
2023-04-02T00:41:08.923Z,495.00
2023-04-02T00:41:39.007Z,496.00
2023-04-02T00:42:09.098Z,497.00
2023-04-02T00:42:39.180Z,499.00
2023-04-02T00:43:09.258Z,498.00
2023-04-02T00:43:39.345Z,500.00
2023-04-02T00:44:09.431Z,498.00
2023-04-02T00:44:39.508Z,497.00
2023-04-02T00:45:09.605Z,496.00
2023-04-02T00:45:39.739Z,496.00
2023-04-02T00:46:09.872Z,496.00
2023-04-02T00:46:39.846Z,497.00
2023-04-02T00:47:09.910Z,500.00
2023-04-02T00:47:40.106Z,501.00
2023-04-02T00:48:10.126Z,503.00
2023-04-02T00:48:40.119Z,502.00
2023-04-02T00:49:10.186Z,501.00
2023-04-02T00:49:40.273Z,499.00
2023-04-02T00:50:10.353Z,500.00
2023-04-02T00:50:40.436Z,500.00
2023-04-02T00:51:10.528Z,500.00
2023-04-02T00:51:40.605Z,501.00
2023-04-02T00:52:10.682Z,500.00
2023-04-02T00:52:40.770Z,501.00
2023-04-02T00:53:10.848Z,499.00
2023-04-02T00:53:40.927Z,498.00
2023-04-02T00:54:11.037Z,501.00
2023-04-02T00:54:41.115Z,499.00
2023-04-02T00:55:11.194Z,502.00
2023-04-02T00:55:41.282Z,501.00
2023-04-02T00:56:11.356Z,498.00
2023-04-02T00:56:41.441Z,495.00
2023-04-02T00:57:11.589Z,494.00
2023-04-02T00:57:41.588Z,495.00
2023-04-02T00:58:11.672Z,496.00
2023-04-02T00:58:41.753Z,498.00
2023-04-02T00:59:11.835Z,497.00
2023-04-02T00:59:41.908Z,494.00
2023-04-02T01:00:12.018Z,494.00
2023-04-02T01:00:42.035Z,494.00
2023-04-02T01:01:12.152Z,494.00
2023-04-02T01:01:42.177Z,491.00
2023-04-02T01:02:12.215Z,491.00
2023-04-02T01:02:42.326Z,492.00
2023-04-02T01:03:12.481Z,491.00
2023-04-02T01:03:42.584Z,493.00
2023-04-02T01:04:12.521Z,493.00
2023-04-02T01:04:42.505Z,494.00
2023-04-02T01:05:12.546Z,496.00
2023-04-02T01:05:42.623Z,496.00
2023-04-02T01:06:12.685Z,497.00
2023-04-02T01:06:42.711Z,496.00
2023-04-02T01:07:12.752Z,495.00
2023-04-02T01:07:42.800Z,495.00
2023-04-02T01:08:12.828Z,496.00
2023-04-02T01:08:42.866Z,495.00
2023-04-02T01:09:12.914Z,497.00
2023-04-02T01:09:42.972Z,495.00
2023-04-02T01:10:13.017Z,494.00
2023-04-02T01:10:43.110Z,493.00
2023-04-02T01:11:13.142Z,493.00
2023-04-02T01:11:43.181Z,493.00
2023-04-02T01:12:13.227Z,495.00
2023-04-02T01:12:43.323Z,496.00
2023-04-02T01:13:13.399Z,497.00
2023-04-02T01:13:43.511Z,497.00
2023-04-02T01:14:13.587Z,496.00
2023-04-02T01:14:43.675Z,496.00
2023-04-02T01:15:13.753Z,496.00
2023-04-02T01:15:43.861Z,496.00
2023-04-02T01:16:14.027Z,497.00
2023-04-02T01:16:43.979Z,497.00
2023-04-02T01:17:14.069Z,497.00
2023-04-02T01:17:44.175Z,497.00
2023-04-02T01:18:14.249Z,498.00
2023-04-02T01:18:44.380Z,498.00
2023-04-02T01:19:14.334Z,497.00
2023-04-02T01:19:44.426Z,498.00
2023-04-02T01:20:14.504Z,497.00
2023-04-02T01:20:44.573Z,498.00
2023-04-02T01:21:14.653Z,497.00
2023-04-02T01:21:44.750Z,499.00
2023-04-02T01:22:14.835Z,498.00
2023-04-02T01:22:44.915Z,497.00
2023-04-02T01:23:15.006Z,497.00
2023-04-02T01:23:45.107Z,497.00
2023-04-02T01:24:15.100Z,496.00
2023-04-02T01:24:45.201Z,495.00
2023-04-02T01:25:15.277Z,495.00
2023-04-02T01:25:45.370Z,494.00
2023-04-02T01:26:15.449Z,495.00
2023-04-02T01:26:45.531Z,496.00
2023-04-02T01:27:15.627Z,495.00
2023-04-02T01:27:45.710Z,495.00
2023-04-02T01:28:15.706Z,494.00
2023-04-02T01:28:45.791Z,495.00
2023-04-02T01:29:15.880Z,494.00
2023-04-02T01:29:45.989Z,493.00
2023-04-02T01:30:16.078Z,492.00
2023-04-02T01:30:46.188Z,494.00
2023-04-02T01:31:16.297Z,494.00
2023-04-02T01:31:46.397Z,494.00
2023-04-02T01:32:16.317Z,492.00
2023-04-02T01:32:46.450Z,490.00
2023-04-02T01:33:16.424Z,491.00
2023-04-02T01:33:46.540Z,489.00
2023-04-02T01:34:16.621Z,489.00
2023-04-02T01:34:46.743Z,492.00
2023-04-02T01:35:16.718Z,492.00
2023-04-02T01:35:46.802Z,493.00
2023-04-02T01:36:16.898Z,495.00
2023-04-02T01:36:46.970Z,494.00
2023-04-02T01:37:17.057Z,494.00
2023-04-02T01:37:47.142Z,496.00
2023-04-02T01:38:17.225Z,498.00
2023-04-02T01:38:47.314Z,498.00
2023-04-02T01:39:17.401Z,498.00
2023-04-02T01:39:47.497Z,496.00
2023-04-02T01:40:17.596Z,500.00
2023-04-02T01:40:47.671Z,501.00
2023-04-02T01:41:17.758Z,498.00
2023-04-02T01:41:47.870Z,500.00
2023-04-02T01:42:17.938Z,497.00
2023-04-02T01:42:48.017Z,497.00
2023-04-02T01:43:18.097Z,497.00
2023-04-02T01:43:48.202Z,498.00
2023-04-02T01:44:18.306Z,497.00
2023-04-02T01:44:48.380Z,499.00
2023-04-02T01:45:18.470Z,502.00
2023-04-02T01:45:48.554Z,498.00
2023-04-02T01:46:18.699Z,499.00
2023-04-02T01:46:48.715Z,495.00
2023-04-02T01:47:18.693Z,493.00
2023-04-02T01:47:48.809Z,493.00
2023-04-02T01:48:18.795Z,493.00
2023-04-02T01:48:48.911Z,494.00
2023-04-02T01:49:18.979Z,493.00
2023-04-02T01:49:49.065Z,493.00
2023-04-02T01:50:19.160Z,492.00
2023-04-02T01:50:49.266Z,496.00
2023-04-02T01:51:19.339Z,496.00
2023-04-02T01:51:49.416Z,494.00
2023-04-02T01:52:19.526Z,496.00
2023-04-02T01:52:49.589Z,495.00
2023-04-02T01:53:19.680Z,497.00
2023-04-02T01:53:49.766Z,498.00
2023-04-02T01:54:19.863Z,496.00
2023-04-02T01:54:49.959Z,493.00
2023-04-02T01:55:20.039Z,492.00
2023-04-02T01:55:50.118Z,491.00
2023-04-02T01:56:20.208Z,494.00
2023-04-02T01:56:50.303Z,497.00
2023-04-02T01:57:20.396Z,498.00
2023-04-02T01:57:50.463Z,500.00
2023-04-02T01:58:20.553Z,497.00
2023-04-02T01:58:50.639Z,497.00
2023-04-02T01:59:20.886Z,496.00
2023-04-02T01:59:50.726Z,495.00
2023-04-02T02:00:50.943Z,495.00
2023-04-02T02:01:21.028Z,494.00
2023-04-02T02:01:50.992Z,493.00
2023-04-02T02:02:21.069Z,493.00
2023-04-02T02:02:51.144Z,488.00
2023-04-02T02:03:21.360Z,497.00
2023-04-02T02:03:51.285Z,493.00
2023-04-02T02:04:21.302Z,492.00
2023-04-02T02:04:51.351Z,490.00
2023-04-02T02:05:21.389Z,492.00
2023-04-02T02:05:51.426Z,493.00
2023-04-02T02:06:21.475Z,491.00
2023-04-02T02:06:51.504Z,494.00
2023-04-02T02:07:21.571Z,494.00
2023-04-02T02:07:51.611Z,494.00
2023-04-02T02:08:21.650Z,495.00
2023-04-02T02:08:51.688Z,494.00
2023-04-02T02:09:21.729Z,492.00
2023-04-02T02:09:51.779Z,490.00
2023-04-02T02:10:21.814Z,491.00
2023-04-02T02:10:51.826Z,489.00
2023-04-02T02:11:21.859Z,486.00
2023-04-02T02:11:51.899Z,489.00
2023-04-02T02:12:21.972Z,488.00
2023-04-02T02:12:52.059Z,492.00
2023-04-02T02:13:22.129Z,489.00
2023-04-02T02:13:52.221Z,494.00
2023-04-02T02:14:22.300Z,497.00
2023-04-02T02:14:52.489Z,496.00
2023-04-02T02:15:22.462Z,497.00
2023-04-02T02:15:52.544Z,497.00
2023-04-02T02:16:22.688Z,494.00
2023-04-02T02:16:52.653Z,496.00
2023-04-02T02:17:22.796Z,497.00
2023-04-02T02:17:52.876Z,498.00
2023-04-02T02:18:22.954Z,499.00
2023-04-02T02:18:53.035Z,498.00
2023-04-02T02:19:23.143Z,497.00
2023-04-02T02:19:53.204Z,497.00
2023-04-02T02:20:23.289Z,496.00
2023-04-02T02:20:53.373Z,497.00
2023-04-02T02:21:23.454Z,497.00
2023-04-02T02:21:53.522Z,492.00
2023-04-02T02:22:23.610Z,491.00
2023-04-02T02:22:53.698Z,493.00
2023-04-02T02:23:23.783Z,496.00
2023-04-02T02:23:53.859Z,498.00
2023-04-02T02:24:23.964Z,496.00
2023-04-02T02:24:54.050Z,497.00
2023-04-02T02:25:24.135Z,497.00
2023-04-02T02:25:54.224Z,496.00
2023-04-02T02:26:24.304Z,494.00
2023-04-02T02:26:54.387Z,494.00
2023-04-02T02:27:24.488Z,494.00
2023-04-02T02:27:54.540Z,495.00
2023-04-02T02:28:24.643Z,495.00
2023-04-02T02:28:54.728Z,496.00
2023-04-02T02:29:24.818Z,495.00
2023-04-02T02:29:54.896Z,494.00
2023-04-02T02:30:24.982Z,493.00
2023-04-02T02:30:55.073Z,495.00
2023-04-02T02:31:25.179Z,493.00
2023-04-02T02:31:55.401Z,491.00
2023-04-02T02:32:25.377Z,491.00
2023-04-02T02:32:55.387Z,491.00
2023-04-02T02:33:25.415Z,492.00
2023-04-02T02:33:55.410Z,493.00
2023-04-02T02:34:25.502Z,491.00
2023-04-02T02:34:55.618Z,491.00
2023-04-02T02:35:25.703Z,490.00
2023-04-02T02:35:55.792Z,488.00
2023-04-02T02:36:26.041Z,486.00
2023-04-02T02:36:55.951Z,486.00
2023-04-02T02:37:26.017Z,487.00
2023-04-02T02:37:56.099Z,487.00
2023-04-02T02:38:26.177Z,488.00
2023-04-02T02:38:56.281Z,488.00
2023-04-02T02:39:26.367Z,492.00
2023-04-02T02:39:56.444Z,494.00
2023-04-02T02:40:26.523Z,496.00
2023-04-02T02:40:56.616Z,497.00
2023-04-02T02:41:26.691Z,491.00
2023-04-02T02:41:56.777Z,490.00
2023-04-02T02:42:26.861Z,488.00
2023-04-02T02:42:56.936Z,489.00
2023-04-02T02:43:27.026Z,489.00
2023-04-02T02:43:57.371Z,489.00
2023-04-02T02:44:27.119Z,487.00
2023-04-02T02:45:27.242Z,489.00
2023-04-02T02:45:57.371Z,488.00
2023-04-02T02:46:27.391Z,490.00
2023-04-02T02:46:57.349Z,491.00
2023-04-02T02:47:27.493Z,489.00
2023-04-02T02:47:57.511Z,488.00
2023-04-02T02:48:27.465Z,489.00
2023-04-02T02:48:57.554Z,491.00
2023-04-02T02:49:27.635Z,491.00
2023-04-02T02:49:58.994Z,490.00
2023-04-02T02:50:27.815Z,491.00
2023-04-02T02:50:57.866Z,490.00
2023-04-02T02:51:27.965Z,491.00
2023-04-02T02:51:58.057Z,490.00
2023-04-02T02:52:28.138Z,490.00
2023-04-02T02:52:58.208Z,489.00
2023-04-02T02:53:28.300Z,489.00
2023-04-02T02:53:58.383Z,488.00
2023-04-02T02:54:28.465Z,489.00
2023-04-02T02:54:58.549Z,489.00
2023-04-02T02:55:28.636Z,491.00
2023-04-02T02:55:58.722Z,490.00
2023-04-02T02:56:28.807Z,489.00
2023-04-02T02:56:58.905Z,491.00
2023-04-02T02:57:29.132Z,496.00
2023-04-02T02:57:59.025Z,496.00
2023-04-02T02:58:29.099Z,495.00
2023-04-02T02:58:59.178Z,495.00
2023-04-02T02:59:29.278Z,497.00
2023-04-02T02:59:59.373Z,495.00
2023-04-02T03:00:29.471Z,494.00
2023-04-02T03:00:59.561Z,491.00
2023-04-02T03:01:29.691Z,491.00
2023-04-02T03:01:59.662Z,492.00
2023-04-02T03:03:08.936Z,508.00
2023-04-02T03:03:38.973Z,507.00
2023-04-02T03:04:09.321Z,509.00
2023-04-02T03:04:39.031Z,509.00
2023-04-02T03:05:09.074Z,507.00
2023-04-02T03:05:39.137Z,508.00
2023-04-02T03:06:09.164Z,508.00
2023-04-02T03:06:39.201Z,506.00
2023-04-02T03:07:09.245Z,506.00
2023-04-02T03:07:39.287Z,506.00
2023-04-02T03:08:09.331Z,505.00
2023-04-02T03:08:39.375Z,505.00
2023-04-02T03:09:09.411Z,506.00
2023-04-02T03:09:39.455Z,507.00
2023-04-02T03:10:09.499Z,506.00
2023-04-02T03:10:39.543Z,508.00
2023-04-02T03:11:09.580Z,503.00
2023-04-02T03:11:39.614Z,505.00
2023-04-02T03:12:09.659Z,505.00
2023-04-02T03:12:39.707Z,510.00
2023-04-02T03:13:09.792Z,512.00
2023-04-02T03:13:39.861Z,507.00
2023-04-02T03:14:09.960Z,508.00
2023-04-02T03:14:40.053Z,512.00
2023-04-02T03:15:10.121Z,510.00
2023-04-02T03:15:40.229Z,509.00
2023-04-02T03:16:10.331Z,507.00
2023-04-02T03:16:40.426Z,507.00
2023-04-02T03:17:10.498Z,507.00
2023-04-02T03:17:40.632Z,505.00
2023-04-02T03:18:10.576Z,505.00
2023-04-02T03:18:40.657Z,505.00
2023-04-02T03:19:10.739Z,508.00
2023-04-02T03:19:40.831Z,510.00
2023-04-02T03:20:10.910Z,503.00
2023-04-02T03:20:40.988Z,504.00
2023-04-02T03:21:11.100Z,503.00
2023-04-02T03:21:41.164Z,506.00
2023-04-02T03:22:11.237Z,492.00
2023-04-02T03:22:41.315Z,497.00
2023-04-02T03:23:11.411Z,502.00
2023-04-02T03:23:41.498Z,502.00
2023-04-02T03:24:11.572Z,500.00
2023-04-02T03:24:41.656Z,503.00
2023-04-02T03:25:11.751Z,502.00
2023-04-02T03:25:41.820Z,499.00
2023-04-02T03:26:11.894Z,502.00
2023-04-02T03:26:41.974Z,499.00
2023-04-02T03:27:12.050Z,496.00
2023-04-02T03:27:42.140Z,497.00
2023-04-02T03:28:12.216Z,496.00
2023-04-02T03:28:42.287Z,498.00
2023-04-02T03:29:12.376Z,499.00
2023-04-02T03:29:42.468Z,498.00
2023-04-02T03:30:12.555Z,499.00
2023-04-02T03:30:42.634Z,495.00
2023-04-02T03:31:12.808Z,495.00
2023-04-02T03:31:42.903Z,496.00
2023-04-02T03:32:12.886Z,498.00
2023-04-02T03:32:42.976Z,498.00
2023-04-02T03:33:12.965Z,497.00
2023-04-02T03:33:43.051Z,497.00
2023-04-02T03:34:13.141Z,500.00
2023-04-02T03:34:43.219Z,506.00
2023-04-02T03:35:13.297Z,504.00
2023-04-02T03:35:43.416Z,502.00
2023-04-02T03:36:13.428Z,503.00
2023-04-02T03:37:13.408Z,500.00
2023-04-02T03:37:43.505Z,493.00
2023-04-02T03:38:13.576Z,497.00
2023-04-02T03:38:43.661Z,499.00
2023-04-02T03:39:13.732Z,499.00
2023-04-02T03:39:43.805Z,496.00
2023-04-02T03:40:13.893Z,503.00
2023-04-02T03:40:43.978Z,503.00
2023-04-02T03:41:14.059Z,500.00
2023-04-02T03:41:44.142Z,500.00
2023-04-02T03:42:14.221Z,503.00
2023-04-02T03:42:44.310Z,501.00
2023-04-02T03:43:14.399Z,502.00
2023-04-02T03:43:44.472Z,505.00
2023-04-02T03:44:14.566Z,502.00
2023-04-02T03:44:44.663Z,500.00
2023-04-02T03:45:14.741Z,501.00
2023-04-02T03:45:44.821Z,497.00
2023-04-02T03:46:14.951Z,493.00
2023-04-02T03:46:44.999Z,496.00
2023-04-02T03:47:14.972Z,498.00
2023-04-02T03:47:45.060Z,498.00
2023-04-02T03:48:15.157Z,498.00
2023-04-02T03:48:45.235Z,498.00
2023-04-02T03:49:15.336Z,495.00
2023-04-02T03:49:45.430Z,495.00
2023-04-02T03:50:15.497Z,493.00
2023-04-02T03:50:45.589Z,493.00
2023-04-02T03:51:15.700Z,493.00
2023-04-02T03:51:45.759Z,495.00
2023-04-02T03:52:15.826Z,495.00
2023-04-02T03:52:45.911Z,494.00
2023-04-02T03:53:15.997Z,494.00
2023-04-02T03:53:46.109Z,495.00
2023-04-02T03:54:16.187Z,498.00
2023-04-02T03:54:53.526Z,499.00
2023-04-02T03:55:16.339Z,497.00
2023-04-02T03:55:46.436Z,499.00
2023-04-02T03:56:16.518Z,498.00
2023-04-02T03:56:46.620Z,502.00
2023-04-02T03:57:16.738Z,500.00
2023-04-02T03:57:46.729Z,499.00
2023-04-02T03:58:16.816Z,496.00
2023-04-02T03:58:46.896Z,497.00
2023-04-02T03:59:16.978Z,497.00
2023-04-02T03:59:47.410Z,496.00
2023-04-02T04:00:17.113Z,495.00
2023-04-02T04:00:47.184Z,496.00
2023-04-02T04:01:17.258Z,498.00
2023-04-02T04:01:47.388Z,497.00
2023-04-02T04:02:17.367Z,494.00
2023-04-02T04:02:47.527Z,495.00
2023-04-02T04:03:17.452Z,496.00
2023-04-02T04:03:47.541Z,495.00
2023-04-02T04:04:17.609Z,491.00
2023-04-02T04:04:47.655Z,492.00
2023-04-02T04:05:17.725Z,492.00
2023-04-02T04:05:47.746Z,493.00
2023-04-02T04:06:19.125Z,491.00
2023-04-02T04:06:47.884Z,493.00
2023-04-02T04:07:17.925Z,491.00
2023-04-02T04:07:47.957Z,494.00
2023-04-02T04:08:18.000Z,499.00
2023-04-02T04:08:48.031Z,500.00
2023-04-02T04:09:18.079Z,497.00
2023-04-02T04:09:48.110Z,495.00
2023-04-02T04:10:18.178Z,494.00
2023-04-02T04:10:48.225Z,493.00
2023-04-02T04:11:18.315Z,495.00
2023-04-02T04:11:48.384Z,492.00
2023-04-02T04:12:18.433Z,494.00
2023-04-02T04:12:48.491Z,491.00
2023-04-02T04:13:18.554Z,488.00
2023-04-02T04:13:48.636Z,489.00
2023-04-02T04:14:18.734Z,489.00
2023-04-02T04:14:48.808Z,489.00
2023-04-02T04:15:18.886Z,488.00
2023-04-02T04:15:48.973Z,488.00
2023-04-02T04:16:19.090Z,492.00
2023-04-02T04:16:49.182Z,494.00
2023-04-02T04:17:19.159Z,496.00
2023-04-02T04:17:49.246Z,495.00
2023-04-02T04:18:19.346Z,494.00
2023-04-02T04:18:49.417Z,494.00
2023-04-02T04:19:19.513Z,494.00
2023-04-02T04:19:49.589Z,495.00
2023-04-02T04:20:19.672Z,496.00
2023-04-02T04:20:49.765Z,496.00
2023-04-02T04:21:19.881Z,496.00
2023-04-02T04:21:49.938Z,497.00
2023-04-02T04:22:20.033Z,497.00
2023-04-02T04:22:50.104Z,499.00
2023-04-02T04:23:20.204Z,500.00
2023-04-02T04:23:50.286Z,499.00
2023-04-02T04:24:20.404Z,499.00
2023-04-02T04:24:50.344Z,499.00
2023-04-02T04:25:20.435Z,499.00
2023-04-02T04:25:50.528Z,498.00
2023-04-02T04:26:20.620Z,496.00
2023-04-02T04:26:50.711Z,496.00
2023-04-02T04:27:20.802Z,495.00
2023-04-02T04:27:50.878Z,493.00
2023-04-02T04:28:20.962Z,491.00
2023-04-02T04:28:51.035Z,493.00
2023-04-02T04:29:21.112Z,493.00
2023-04-02T04:29:51.201Z,493.00
2023-04-02T04:30:21.297Z,492.00
2023-04-02T04:30:51.437Z,494.00
2023-04-02T04:31:23.405Z,493.00
2023-04-02T04:31:51.409Z,493.00
2023-04-02T04:32:21.529Z,493.00
2023-04-02T04:32:51.641Z,492.00
2023-04-02T04:33:21.620Z,490.00
2023-04-02T04:33:51.683Z,491.00
2023-04-02T04:34:21.762Z,497.00
2023-04-02T04:34:51.850Z,498.00
2023-04-02T04:35:21.948Z,497.00
2023-04-02T04:35:52.042Z,498.00
2023-04-02T04:36:22.044Z,497.00
2023-04-02T04:36:52.110Z,495.00
2023-04-02T04:37:22.189Z,492.00
2023-04-02T04:37:52.260Z,492.00
2023-04-02T04:38:22.351Z,491.00
2023-04-02T04:38:52.429Z,492.00
2023-04-02T04:39:22.523Z,492.00
2023-04-02T04:39:52.625Z,492.00
2023-04-02T04:40:22.705Z,489.00
2023-04-02T04:40:52.792Z,486.00
2023-04-02T04:41:22.876Z,489.00
2023-04-02T04:41:52.957Z,489.00
2023-04-02T04:42:23.061Z,491.00
2023-04-02T04:42:53.123Z,491.00
2023-04-02T04:43:23.204Z,491.00
2023-04-02T04:43:53.297Z,489.00
2023-04-02T04:44:23.414Z,492.00
2023-04-02T04:44:53.491Z,493.00
2023-04-02T04:45:23.618Z,492.00
2023-04-02T04:45:53.617Z,492.00
2023-04-02T04:46:23.692Z,494.00
2023-04-02T04:46:53.697Z,500.00
2023-04-02T04:47:23.781Z,502.00
2023-04-02T04:47:53.856Z,497.00
2023-04-02T04:48:23.850Z,495.00
2023-04-02T04:48:53.851Z,495.00
2023-04-02T04:49:23.870Z,498.00
2023-04-02T04:49:53.963Z,498.00
2023-04-02T04:50:24.047Z,497.00
2023-04-02T04:50:54.143Z,496.00
2023-04-02T04:51:24.220Z,491.00
2023-04-02T04:51:54.331Z,490.00
2023-04-02T04:52:24.392Z,491.00
2023-04-02T04:52:54.486Z,490.00
2023-04-02T04:53:24.568Z,489.00
2023-04-02T04:53:54.651Z,488.00
2023-04-02T04:54:24.741Z,488.00
2023-04-02T04:54:54.810Z,486.00
2023-04-02T04:55:24.897Z,487.00
2023-04-02T04:55:54.992Z,488.00
2023-04-02T04:56:25.092Z,487.00
2023-04-02T04:56:55.181Z,489.00
2023-04-02T04:57:25.207Z,488.00
2023-04-02T04:57:55.245Z,490.00
2023-04-02T04:58:25.335Z,490.00
2023-04-02T04:58:55.423Z,494.00
2023-04-02T04:59:25.496Z,496.00
2023-04-02T04:59:55.585Z,492.00
2023-04-02T05:00:25.677Z,494.00
2023-04-02T05:00:55.768Z,492.00
2023-04-02T05:01:25.867Z,491.00
2023-04-02T05:01:56.018Z,495.00
2023-04-02T05:02:26.078Z,497.00
2023-04-02T05:02:56.156Z,493.00
2023-04-02T05:03:26.195Z,493.00
2023-04-02T05:03:56.218Z,495.00
2023-04-02T05:04:26.324Z,496.00
2023-04-02T05:04:56.411Z,500.00
2023-04-02T05:05:26.452Z,499.00
2023-04-02T05:05:56.487Z,500.00
2023-04-02T05:06:26.525Z,496.00
2023-04-02T05:06:56.595Z,500.00
2023-04-02T05:07:26.612Z,499.00
2023-04-02T05:07:57.932Z,498.00
2023-04-02T05:08:26.683Z,499.00
2023-04-02T05:08:56.703Z,500.00
2023-04-02T05:09:26.762Z,497.00
2023-04-02T05:09:56.826Z,497.00
2023-04-02T05:10:26.861Z,496.00
2023-04-02T05:10:56.913Z,495.00
2023-04-02T05:11:26.954Z,494.00
2023-04-02T05:11:56.996Z,495.00
2023-04-02T05:12:27.096Z,496.00
2023-04-02T05:12:57.150Z,495.00
2023-04-02T05:13:27.232Z,495.00
2023-04-02T05:13:57.312Z,495.00
2023-04-02T05:14:27.434Z,494.00
2023-04-02T05:14:57.505Z,496.00
2023-04-02T05:15:27.588Z,493.00
2023-04-02T05:15:59.471Z,495.00
2023-04-02T05:16:27.776Z,495.00
2023-04-02T05:16:57.848Z,497.00
2023-04-02T05:17:27.953Z,500.00
2023-04-02T05:17:58.064Z,498.00
2023-04-02T05:18:28.035Z,498.00
2023-04-02T05:18:58.130Z,497.00
2023-04-02T05:19:28.206Z,498.00
2023-04-02T05:19:58.285Z,498.00
2023-04-02T05:20:28.372Z,501.00
2023-04-02T05:20:58.466Z,498.00
2023-04-02T05:21:28.538Z,498.00
2023-04-02T05:21:58.657Z,494.00
2023-04-02T05:22:28.724Z,488.00
2023-04-02T05:22:58.816Z,489.00
2023-04-02T05:23:28.889Z,489.00
2023-04-02T05:23:58.973Z,488.00
2023-04-02T05:24:29.062Z,487.00
2023-04-02T05:24:59.148Z,488.00
2023-04-02T05:25:29.242Z,488.00
2023-04-02T05:25:59.322Z,486.00
2023-04-02T05:26:29.409Z,487.00
2023-04-02T05:26:59.480Z,487.00
2023-04-02T05:27:29.603Z,486.00
2023-04-02T05:27:59.598Z,486.00
2023-04-02T05:28:29.686Z,487.00
2023-04-02T05:28:59.805Z,490.00
2023-04-02T05:29:29.761Z,484.00
2023-04-02T05:29:59.856Z,485.00
2023-04-02T05:30:29.938Z,485.00
2023-04-02T05:31:00.056Z,485.00
2023-04-02T05:31:30.131Z,487.00
2023-04-02T05:32:00.125Z,487.00
2023-04-02T05:32:30.226Z,486.00
2023-04-02T05:33:00.365Z,488.00
2023-04-02T05:33:30.359Z,489.00
2023-04-02T05:34:00.436Z,491.00
2023-04-02T05:34:30.526Z,493.00
2023-04-02T05:35:00.626Z,494.00
2023-04-02T05:35:30.700Z,492.00
2023-04-02T05:36:00.806Z,492.00
2023-04-02T05:36:30.868Z,492.00
2023-04-02T05:37:00.951Z,490.00
2023-04-02T05:37:31.075Z,490.00
2023-04-02T05:38:01.150Z,487.00
2023-04-02T05:38:31.245Z,491.00
2023-04-02T05:39:01.335Z,487.00
2023-04-02T05:39:31.427Z,487.00
2023-04-02T05:40:01.511Z,483.00
2023-04-02T05:40:31.590Z,483.00
2023-04-02T05:41:01.667Z,484.00
2023-04-02T05:41:31.752Z,486.00
2023-04-02T05:42:01.850Z,484.00
2023-04-02T05:42:31.932Z,486.00
2023-04-02T05:43:02.022Z,485.00
2023-04-02T05:43:32.112Z,486.00
2023-04-02T05:44:02.222Z,486.00
2023-04-02T05:44:32.309Z,487.00
2023-04-02T05:45:02.389Z,488.00
2023-04-02T05:45:32.463Z,486.00
2023-04-02T05:46:02.519Z,484.00
2023-04-02T05:46:32.677Z,483.00
2023-04-02T05:47:02.686Z,481.00
2023-04-02T05:47:32.790Z,484.00
2023-04-02T05:48:02.980Z,486.00
2023-04-02T05:48:32.963Z,486.00
2023-04-02T05:49:03.041Z,487.00
2023-04-02T05:49:33.121Z,485.00
2023-04-02T05:50:03.203Z,487.00
2023-04-02T05:50:33.288Z,488.00
2023-04-02T05:51:03.374Z,489.00
2023-04-02T05:51:33.460Z,490.00
2023-04-02T05:52:03.547Z,489.00
2023-04-02T05:52:33.653Z,486.00
2023-04-02T05:53:03.720Z,486.00
2023-04-02T05:53:33.808Z,485.00
2023-04-02T05:54:03.887Z,486.00
2023-04-02T05:54:33.977Z,487.00
2023-04-02T05:55:04.067Z,487.00
2023-04-02T05:55:34.387Z,490.00
2023-04-02T05:56:04.227Z,490.00
2023-04-02T05:56:34.305Z,488.00
2023-04-02T05:57:04.433Z,488.00
2023-04-02T05:57:44.594Z,488.00
2023-04-02T05:58:29.420Z,487.00
2023-04-02T05:58:36.583Z,488.00
2023-04-02T05:59:04.591Z,484.00
2023-04-02T05:59:34.714Z,488.00
2023-04-02T06:00:04.692Z,490.00
2023-04-02T06:00:34.765Z,491.00
2023-04-02T06:01:04.855Z,489.00
2023-04-02T06:01:34.918Z,491.00
2023-04-02T06:02:05.045Z,488.00
2023-04-02T06:02:35.240Z,492.00
2023-04-02T06:03:05.158Z,493.00
2023-04-02T06:03:35.170Z,490.00
2023-04-02T06:04:05.280Z,489.00
2023-04-02T06:04:35.207Z,486.00
2023-04-02T06:05:05.254Z,485.00
2023-04-02T06:05:35.457Z,486.00
2023-04-02T06:06:05.382Z,488.00
2023-04-02T06:06:35.425Z,490.00
2023-04-02T06:07:05.462Z,488.00
2023-04-02T06:07:35.513Z,487.00
2023-04-02T06:08:05.566Z,490.00
2023-04-02T06:08:35.576Z,490.00
2023-04-02T06:09:05.616Z,491.00
2023-04-02T06:09:35.662Z,489.00
2023-04-02T06:10:05.704Z,488.00
2023-04-02T06:10:35.747Z,489.00
2023-04-02T06:11:05.793Z,488.00
2023-04-02T06:11:35.829Z,489.00
2023-04-02T06:12:05.886Z,487.00
2023-04-02T06:12:35.900Z,487.00
2023-04-02T06:13:05.909Z,486.00
2023-04-02T06:13:36.069Z,487.00
2023-04-02T06:14:06.027Z,488.00
2023-04-02T06:14:36.105Z,488.00
2023-04-02T06:15:06.175Z,490.00
2023-04-02T06:15:36.537Z,490.00
2023-04-02T06:16:06.263Z,488.00
2023-04-02T06:16:36.390Z,490.00
2023-04-02T06:17:06.349Z,489.00